sensor_id;sensor_type;location;lat;lon;timestamp;pressure;altitude;pressure_sealevel;temperature;humidity
5455;BME280;2750;49.050;9.250;2023-03-13T00:03:32;98290.88;;;11.70;79.78
5455;BME280;2750;49.050;9.250;2023-03-13T00:08:34;98288.69;;;11.78;79.80
5455;BME280;2750;49.050;9.250;2023-03-13T00:13:36;98279.84;;;11.81;79.90
5455;BME280;2750;49.050;9.250;2023-03-13T00:18:43;98283.97;;;11.99;79.51
5455;BME280;2750;49.050;9.250;2023-03-13T00:23:46;98272.56;;;11.87;79.21
5455;BME280;2750;49.050;9.250;2023-03-13T00:28:48;98271.88;;;12.12;79.05
5455;BME280;2750;49.050;9.250;2023-03-13T00:33:53;98267.25;;;12.17;78.75
5455;BME280;2750;49.050;9.250;2023-03-13T00:38:57;98258.41;;;12.34;78.34
5455;BME280;2750;49.050;9.250;2023-03-13T00:43:59;98248.41;;;12.14;78.96
5455;BME280;2750;49.050;9.250;2023-03-13T00:49:02;98241.69;;;12.38;78.55
5455;BME280;2750;49.050;9.250;2023-03-13T00:54:04;98243.44;;;12.23;78.86
5455;BME280;2750;49.050;9.250;2023-03-13T00:59:05;98238.00;;;12.14;78.99
5455;BME280;2750;49.050;9.250;2023-03-13T01:04:09;98227.91;;;12.36;78.29
5455;BME280;2750;49.050;9.250;2023-03-13T01:09:14;98213.19;;;12.22;78.84
5455;BME280;2750;49.050;9.250;2023-03-13T01:14:17;98203.59;;;12.23;78.87
5455;BME280;2750;49.050;9.250;2023-03-13T01:19:20;98185.22;;;12.26;78.80
5455;BME280;2750;49.050;9.250;2023-03-13T01:24:22;98191.69;;;12.33;78.88
5455;BME280;2750;49.050;9.250;2023-03-13T01:29:23;98183.75;;;12.49;78.70
5455;BME280;2750;49.050;9.250;2023-03-13T01:34:26;98177.16;;;12.43;78.67
5455;BME280;2750;49.050;9.250;2023-03-13T01:39:28;98167.88;;;12.66;77.99
5455;BME280;2750;49.050;9.250;2023-03-13T01:44:48;98155.41;;;12.71;78.10
5455;BME280;2750;49.050;9.250;2023-03-13T01:49:52;98141.91;;;12.52;78.44
5455;BME280;2750;49.050;9.250;2023-03-13T01:54:56;98133.06;;;12.27;79.06
5455;BME280;2750;49.050;9.250;2023-03-13T02:00:04;98127.78;;;12.29;78.76
5455;BME280;2750;49.050;9.250;2023-03-13T02:05:11;98120.34;;;12.37;78.91
5455;BME280;2750;49.050;9.250;2023-03-13T02:10:15;98111.13;;;12.31;79.24
5455;BME280;2750;49.050;9.250;2023-03-13T02:15:20;98098.25;;;12.30;78.54
5455;BME280;2750;49.050;9.250;2023-03-13T02:20:24;98109.94;;;12.50;78.29
5455;BME280;2750;49.050;9.250;2023-03-13T02:25:34;98094.91;;;12.28;78.56
5455;BME280;2750;49.050;9.250;2023-03-13T02:30:37;98086.00;;;12.44;78.28
5455;BME280;2750;49.050;9.250;2023-03-13T02:35:41;98082.50;;;12.58;77.41
5455;BME280;2750;49.050;9.250;2023-03-13T02:40:45;98071.25;;;12.45;77.97
5455;BME280;2750;49.050;9.250;2023-03-13T02:46:02;98061.28;;;12.64;77.79
5455;BME280;2750;49.050;9.250;2023-03-13T02:51:08;98055.44;;;12.73;77.46
5455;BME280;2750;49.050;9.250;2023-03-13T02:56:14;98045.13;;;12.84;76.99
5455;BME280;2750;49.050;9.250;2023-03-13T03:01:17;98031.09;;;12.74;77.93
5455;BME280;2750;49.050;9.250;2023-03-13T03:06:19;98029.41;;;12.73;78.35
5455;BME280;2750;49.050;9.250;2023-03-13T03:11:22;98032.84;;;12.61;79.44
5455;BME280;2750;49.050;9.250;2023-03-13T03:16:23;98025.16;;;12.72;79.66
5455;BME280;2750;49.050;9.250;2023-03-13T03:21:25;98026.28;;;12.56;79.73
5455;BME280;2750;49.050;9.250;2023-03-13T03:26:28;98026.59;;;12.51;80.91
5455;BME280;2750;49.050;9.250;2023-03-13T03:31:30;98025.75;;;12.51;81.24
5455;BME280;2750;49.050;9.250;2023-03-13T03:36:31;98009.63;;;12.45;81.80
5455;BME280;2750;49.050;9.250;2023-03-13T03:41:35;98004.31;;;12.60;80.96
5455;BME280;2750;49.050;9.250;2023-03-13T03:46:37;97999.97;;;12.60;80.87
5455;BME280;2750;49.050;9.250;2023-03-13T03:51:38;97993.00;;;12.61;80.61
5455;BME280;2750;49.050;9.250;2023-03-13T03:56:41;97996.94;;;12.66;80.58
5455;BME280;2750;49.050;9.250;2023-03-13T04:01:43;97989.88;;;12.68;80.13
5455;BME280;2750;49.050;9.250;2023-03-13T04:06:44;97985.69;;;12.78;80.39
5455;BME280;2750;49.050;9.250;2023-03-13T04:11:47;97982.03;;;12.93;79.62
5455;BME280;2750;49.050;9.250;2023-03-13T04:16:49;97968.78;;;12.97;79.57
5455;BME280;2750;49.050;9.250;2023-03-13T04:21:50;97953.09;;;13.11;79.05
5455;BME280;2750;49.050;9.250;2023-03-13T04:26:53;97959.84;;;13.13;79.55
5455;BME280;2750;49.050;9.250;2023-03-13T04:31:55;97950.56;;;13.22;79.56
5455;BME280;2750;49.050;9.250;2023-03-13T04:36:56;97951.03;;;13.27;79.15
5455;BME280;2750;49.050;9.250;2023-03-13T04:41:59;97961.28;;;13.17;79.61
5455;BME280;2750;49.050;9.250;2023-03-13T04:47:01;97963.38;;;13.12;80.41
5455;BME280;2750;49.050;9.250;2023-03-13T04:52:03;97959.31;;;12.95;80.95
5455;BME280;2750;49.050;9.250;2023-03-13T04:57:06;97955.31;;;13.28;80.19
5455;BME280;2750;49.050;9.250;2023-03-13T05:02:09;97957.28;;;13.37;80.33
5455;BME280;2750;49.050;9.250;2023-03-13T05:07:12;97956.88;;;13.30;81.20
5455;BME280;2750;49.050;9.250;2023-03-13T05:12:15;97940.81;;;13.36;82.75
5455;BME280;2750;49.050;9.250;2023-03-13T05:17:16;97935.59;;;13.36;84.65
5455;BME280;2750;49.050;9.250;2023-03-13T05:22:18;97919.22;;;13.34;85.42
5455;BME280;2750;49.050;9.250;2023-03-13T05:27:21;97932.56;;;13.66;85.41
5455;BME280;2750;49.050;9.250;2023-03-13T05:32:22;97920.69;;;13.62;85.73
5455;BME280;2750;49.050;9.250;2023-03-13T05:37:24;97925.97;;;13.84;85.69
5455;BME280;2750;49.050;9.250;2023-03-13T05:42:27;97927.03;;;13.82;86.19
5455;BME280;2750;49.050;9.250;2023-03-13T05:47:28;97912.84;;;13.62;89.09
5455;BME280;2750;49.050;9.250;2023-03-13T05:52:30;97920.41;;;13.78;88.30
5455;BME280;2750;49.050;9.250;2023-03-13T05:57:32;97916.84;;;13.55;90.01
5455;BME280;2750;49.050;9.250;2023-03-13T06:02:35;97910.94;;;13.88;89.08
5455;BME280;2750;49.050;9.250;2023-03-13T06:07:37;97918.06;;;13.86;89.05
5455;BME280;2750;49.050;9.250;2023-03-13T06:12:39;97904.16;;;13.74;89.74
5455;BME280;2750;49.050;9.250;2023-03-13T06:17:41;97906.56;;;13.88;88.79
5455;BME280;2750;49.050;9.250;2023-03-13T06:22:43;97893.47;;;14.12;87.88
5455;BME280;2750;49.050;9.250;2023-03-13T06:27:46;97895.47;;;14.09;87.73
5455;BME280;2750;49.050;9.250;2023-03-13T06:32:47;97901.66;;;14.19;86.89
5455;BME280;2750;49.050;9.250;2023-03-13T06:37:49;97898.16;;;14.42;86.43
5455;BME280;2750;49.050;9.250;2023-03-13T06:42:52;97899.78;;;14.32;86.80
5455;BME280;2750;49.050;9.250;2023-03-13T06:47:54;97914.66;;;14.54;85.50
5455;BME280;2750;49.050;9.250;2023-03-13T06:52:55;97920.13;;;14.73;85.50
5455;BME280;2750;49.050;9.250;2023-03-13T06:57:59;97934.88;;;14.74;85.13
5455;BME280;2750;49.050;9.250;2023-03-13T07:03:00;97922.88;;;14.94;84.73
5455;BME280;2750;49.050;9.250;2023-03-13T07:08:02;97933.66;;;15.11;83.66
5455;BME280;2750;49.050;9.250;2023-03-13T07:13:05;97940.66;;;15.00;84.28
5455;BME280;2750;49.050;9.250;2023-03-13T07:18:06;97934.16;;;15.05;84.50
5455;BME280;2750;49.050;9.250;2023-03-13T07:23:08;97925.19;;;15.30;84.85
5455;BME280;2750;49.050;9.250;2023-03-13T07:28:10;97921.13;;;15.48;83.85
5455;BME280;2750;49.050;9.250;2023-03-13T07:33:12;97908.56;;;15.31;85.44
5455;BME280;2750;49.050;9.250;2023-03-13T07:38:14;97906.00;;;15.09;87.09
5455;BME280;2750;49.050;9.250;2023-03-13T07:43:17;97886.34;;;15.68;85.60
5455;BME280;2750;49.050;9.250;2023-03-13T07:48:19;97887.22;;;15.90;84.96
5455;BME280;2750;49.050;9.250;2023-03-13T07:53:21;97886.22;;;16.02;84.84
5455;BME280;2750;49.050;9.250;2023-03-13T07:58:25;97894.31;;;16.19;83.98
5455;BME280;2750;49.050;9.250;2023-03-13T08:03:27;97890.38;;;16.55;82.14
5455;BME280;2750;49.050;9.250;2023-03-13T08:08:29;97870.19;;;16.46;82.61
5455;BME280;2750;49.050;9.250;2023-03-13T08:13:33;97852.38;;;16.61;81.74
5455;BME280;2750;49.050;9.250;2023-03-13T08:18:36;97836.81;;;17.38;79.88
5455;BME280;2750;49.050;9.250;2023-03-13T08:23:38;97845.56;;;17.57;78.77
5455;BME280;2750;49.050;9.250;2023-03-13T08:28:42;97849.00;;;17.58;78.79
5455;BME280;2750;49.050;9.250;2023-03-13T08:33:45;97847.41;;;18.23;76.78
5455;BME280;2750;49.050;9.250;2023-03-13T08:38:47;97848.94;;;18.06;77.65
5455;BME280;2750;49.050;9.250;2023-03-13T08:43:52;97853.38;;;17.48;79.13
5455;BME280;2750;49.050;9.250;2023-03-13T08:48:54;97846.34;;;17.48;78.77
5455;BME280;2750;49.050;9.250;2023-03-13T08:53:56;97848.13;;;18.15;76.72
5455;BME280;2750;49.050;9.250;2023-03-13T08:59:00;97843.31;;;18.47;75.87
5455;BME280;2750;49.050;9.250;2023-03-13T09:04:02;97845.69;;;17.85;77.26
5455;BME280;2750;49.050;9.250;2023-03-13T09:09:05;97845.31;;;18.36;75.88
5455;BME280;2750;49.050;9.250;2023-03-13T09:14:09;97842.56;;;18.18;75.99
5455;BME280;2750;49.050;9.250;2023-03-13T09:19:11;97823.34;;;18.27;75.58
5455;BME280;2750;49.050;9.250;2023-03-13T09:24:13;97823.28;;;18.00;76.30
5455;BME280;2750;49.050;9.250;2023-03-13T09:29:16;97843.69;;;18.06;75.90
5455;BME280;2750;49.050;9.250;2023-03-13T09:34:18;97853.34;;;17.29;77.29
5455;BME280;2750;49.050;9.250;2023-03-13T09:39:19;97852.25;;;17.12;77.12
5455;BME280;2750;49.050;9.250;2023-03-13T09:44:24;97841.09;;;17.19;76.54
5455;BME280;2750;49.050;9.250;2023-03-13T09:49:30;97835.97;;;17.37;75.75
5455;BME280;2750;49.050;9.250;2023-03-13T09:54:35;97834.03;;;18.16;73.26
5455;BME280;2750;49.050;9.250;2023-03-13T09:59:44;97812.66;;;18.29;72.57
5455;BME280;2750;49.050;9.250;2023-03-13T10:04:50;97814.84;;;18.43;72.82
5455;BME280;2750;49.050;9.250;2023-03-13T10:09:54;97815.03;;;19.14;71.70
5455;BME280;2750;49.050;9.250;2023-03-13T10:15:18;97804.34;;;19.42;70.38
5455;BME280;2750;49.050;9.250;2023-03-13T10:20:25;97782.44;;;20.03;69.59
5455;BME280;2750;49.050;9.250;2023-03-13T10:25:29;97770.28;;;20.86;66.93
5455;BME280;2750;49.050;9.250;2023-03-13T10:30:34;97770.78;;;20.73;66.75
5455;BME280;2750;49.050;9.250;2023-03-13T10:35:40;97754.41;;;21.60;66.46
5455;BME280;2750;49.050;9.250;2023-03-13T10:40:42;97754.25;;;21.21;65.60
5455;BME280;2750;49.050;9.250;2023-03-13T10:45:45;97756.22;;;21.27;66.52
5455;BME280;2750;49.050;9.250;2023-03-13T10:50:48;97751.94;;;21.67;65.75
5455;BME280;2750;49.050;9.250;2023-03-13T10:55:52;97750.97;;;20.69;67.53
5455;BME280;2750;49.050;9.250;2023-03-13T11:01:17;97744.75;;;20.86;66.98
5455;BME280;2750;49.050;9.250;2023-03-13T11:06:29;97742.28;;;20.85;67.57
5455;BME280;2750;49.050;9.250;2023-03-13T11:11:42;97739.38;;;21.12;66.99
5455;BME280;2750;49.050;9.250;2023-03-13T11:16:48;97713.38;;;20.67;66.73
5455;BME280;2750;49.050;9.250;2023-03-13T11:22:00;97712.72;;;20.65;66.93
5455;BME280;2750;49.050;9.250;2023-03-13T11:27:14;97704.59;;;21.33;66.90
5455;BME280;2750;49.050;9.250;2023-03-13T11:32:22;97700.00;;;22.22;64.46
5455;BME280;2750;49.050;9.250;2023-03-13T11:37:27;97684.25;;;22.60;63.60
5455;BME280;2750;49.050;9.250;2023-03-13T11:42:49;97678.97;;;22.60;63.33
5455;BME280;2750;49.050;9.250;2023-03-13T11:48:00;97665.28;;;22.25;63.50
5455;BME280;2750;49.050;9.250;2023-03-13T11:53:17;97655.69;;;22.55;64.36
5455;BME280;2750;49.050;9.250;2023-03-13T11:58:48;97636.28;;;22.01;64.16
5455;BME280;2750;49.050;9.250;2023-03-13T12:03:58;97618.84;;;21.92;63.87
5455;BME280;2750;49.050;9.250;2023-03-13T12:09:05;97604.28;;;21.00;65.60
5455;BME280;2750;49.050;9.250;2023-03-13T12:14:14;97598.19;;;21.16;65.20
5455;BME280;2750;49.050;9.250;2023-03-13T12:19:22;97584.97;;;21.40;64.67
5455;BME280;2750;49.050;9.250;2023-03-13T12:24:29;97579.44;;;21.66;64.49
5455;BME280;2750;49.050;9.250;2023-03-13T12:29:41;97564.75;;;21.64;64.59
5455;BME280;2750;49.050;9.250;2023-03-13T12:34:58;97550.16;;;21.84;64.05
5455;BME280;2750;49.050;9.250;2023-03-13T12:40:03;97529.78;;;22.23;63.54
5455;BME280;2750;49.050;9.250;2023-03-13T12:45:13;97497.91;;;22.85;63.47
5455;BME280;2750;49.050;9.250;2023-03-13T12:50:28;97482.06;;;22.62;62.38
5455;BME280;2750;49.050;9.250;2023-03-13T12:55:54;97469.69;;;22.77;62.66
5455;BME280;2750;49.050;9.250;2023-03-13T13:01:01;97455.84;;;23.63;60.86
5455;BME280;2750;49.050;9.250;2023-03-13T13:06:08;97444.41;;;23.99;60.86
5455;BME280;2750;49.050;9.250;2023-03-13T13:11:47;97429.09;;;22.85;61.33
5455;BME280;2750;49.050;9.250;2023-03-13T13:16:51;97423.81;;;23.79;60.37
5455;BME280;2750;49.050;9.250;2023-03-13T13:33:37;97381.81;;;24.04;60.25
5455;BME280;2750;49.050;9.250;2023-03-13T13:38:43;97368.63;;;24.32;58.55
5455;BME280;2750;49.050;9.250;2023-03-13T13:43:46;97355.81;;;24.36;58.78
5455;BME280;2750;49.050;9.250;2023-03-13T13:49:05;97337.97;;;24.02;58.74
5455;BME280;2750;49.050;9.250;2023-03-13T13:54:30;97331.69;;;24.31;59.60
5455;BME280;2750;49.050;9.250;2023-03-13T13:59:42;97324.22;;;25.22;57.38
5455;BME280;2750;49.050;9.250;2023-03-13T14:04:50;97314.34;;;24.69;57.90
5455;BME280;2750;49.050;9.250;2023-03-13T14:09:58;97292.66;;;23.97;58.90
5455;BME280;2750;49.050;9.250;2023-03-13T14:15:12;97292.88;;;24.23;58.42
5455;BME280;2750;49.050;9.250;2023-03-13T14:20:28;97265.78;;;25.22;57.02
5455;BME280;2750;49.050;9.250;2023-03-13T14:25:41;97247.38;;;25.14;56.82
5455;BME280;2750;49.050;9.250;2023-03-13T14:30:43;97237.78;;;25.27;57.44
5455;BME280;2750;49.050;9.250;2023-03-13T14:35:46;97243.41;;;24.84;57.47
5455;BME280;2750;49.050;9.250;2023-03-13T14:40:49;97226.56;;;25.18;56.77
5455;BME280;2750;49.050;9.250;2023-03-13T14:45:51;97210.47;;;25.59;56.56
5455;BME280;2750;49.050;9.250;2023-03-13T14:51:00;97191.72;;;26.38;54.17
5455;BME280;2750;49.050;9.250;2023-03-13T14:56:11;97174.88;;;25.14;55.37
5455;BME280;2750;49.050;9.250;2023-03-13T15:01:23;97156.28;;;24.47;56.23
5455;BME280;2750;49.050;9.250;2023-03-13T15:06:26;97147.25;;;23.94;56.73
5455;BME280;2750;49.050;9.250;2023-03-13T15:11:30;97129.06;;;24.18;57.29
5455;BME280;2750;49.050;9.250;2023-03-13T15:16:33;97104.06;;;24.41;55.99
5455;BME280;2750;49.050;9.250;2023-03-13T15:21:36;97088.50;;;24.31;56.32
5455;BME280;2750;49.050;9.250;2023-03-13T15:26:37;97080.81;;;24.56;56.29
5455;BME280;2750;49.050;9.250;2023-03-13T15:31:39;97080.19;;;24.41;56.30
5455;BME280;2750;49.050;9.250;2023-03-13T15:36:42;97073.28;;;24.53;56.68
5455;BME280;2750;49.050;9.250;2023-03-13T15:41:44;97072.69;;;25.56;55.57
5455;BME280;2750;49.050;9.250;2023-03-13T15:46:45;97058.19;;;25.52;55.01
5455;BME280;2750;49.050;9.250;2023-03-13T15:51:48;97044.16;;;25.89;54.55
5455;BME280;2750;49.050;9.250;2023-03-13T15:56:50;97037.00;;;24.86;56.11
5455;BME280;2750;49.050;9.250;2023-03-13T16:01:52;97020.75;;;25.60;54.76
5455;BME280;2750;49.050;9.250;2023-03-13T16:06:54;96994.66;;;27.32;53.20
5455;BME280;2750;49.050;9.250;2023-03-13T16:11:57;97006.31;;;27.13;52.12
5455;BME280;2750;49.050;9.250;2023-03-13T16:16:59;96986.13;;;27.41;52.39
5455;BME280;2750;49.050;9.250;2023-03-13T16:22:02;96981.25;;;26.95;52.78
5455;BME280;2750;49.050;9.250;2023-03-13T16:27:10;96969.81;;;26.07;53.86
5455;BME280;2750;49.050;9.250;2023-03-13T16:32:15;96967.53;;;26.11;53.90
5455;BME280;2750;49.050;9.250;2023-03-13T16:37:19;96959.53;;;25.22;55.00
5455;BME280;2750;49.050;9.250;2023-03-13T16:42:21;96956.31;;;24.48;56.26
5455;BME280;2750;49.050;9.250;2023-03-13T16:47:27;96938.69;;;23.94;57.26
5455;BME280;2750;49.050;9.250;2023-03-13T16:52:31;96938.25;;;23.84;57.40
5455;BME280;2750;49.050;9.250;2023-03-13T16:57:33;96940.56;;;23.05;59.12
5455;BME280;2750;49.050;9.250;2023-03-13T17:02:34;96919.75;;;22.96;59.04
5455;BME280;2750;49.050;9.250;2023-03-13T17:07:38;96910.56;;;22.36;60.38
5455;BME280;2750;49.050;9.250;2023-03-13T17:12:39;96893.06;;;22.63;60.16
5455;BME280;2750;49.050;9.250;2023-03-13T17:17:41;96900.81;;;22.36;60.67
5455;BME280;2750;49.050;9.250;2023-03-13T17:22:49;96889.16;;;22.03;60.97
5455;BME280;2750;49.050;9.250;2023-03-13T17:27:50;96867.38;;;22.01;61.17
5455;BME280;2750;49.050;9.250;2023-03-13T17:32:53;96865.56;;;21.80;61.73
5455;BME280;2750;49.050;9.250;2023-03-13T17:37:55;96861.09;;;22.02;62.03
5455;BME280;2750;49.050;9.250;2023-03-13T17:42:57;96863.22;;;22.13;61.51
5455;BME280;2750;49.050;9.250;2023-03-13T17:47:59;96851.31;;;21.96;61.69
5455;BME280;2750;49.050;9.250;2023-03-13T17:53:02;96851.41;;;21.88;61.58
5455;BME280;2750;49.050;9.250;2023-03-13T17:58:03;96971.84;;;18.96;69.40
5455;BME280;2750;49.050;9.250;2023-03-13T18:03:05;96959.94;;;17.05;75.54
5455;BME280;2750;49.050;9.250;2023-03-13T18:08:10;96953.22;;;16.77;77.90
5455;BME280;2750;49.050;9.250;2023-03-13T18:13:12;96914.53;;;16.45;79.79
5455;BME280;2750;49.050;9.250;2023-03-13T18:18:15;96961.59;;;16.54;80.77
5455;BME280;2750;49.050;9.250;2023-03-13T18:23:18;96952.91;;;15.93;84.87
5455;BME280;2750;49.050;9.250;2023-03-13T18:28:20;96939.41;;;15.35;88.41
5455;BME280;2750;49.050;9.250;2023-03-13T18:33:21;96989.56;;;15.11;91.21
5455;BME280;2750;49.050;9.250;2023-03-13T18:38:24;97014.19;;;14.23;96.91
5455;BME280;2750;49.050;9.250;2023-03-13T18:43:26;97120.41;;;13.93;100.00
5455;BME280;2750;49.050;9.250;2023-03-13T18:48:28;97050.75;;;14.14;100.00
5455;BME280;2750;49.050;9.250;2023-03-13T18:53:31;97014.63;;;14.28;100.00
5455;BME280;2750;49.050;9.250;2023-03-13T18:58:32;97012.56;;;14.32;100.00
5455;BME280;2750;49.050;9.250;2023-03-13T19:03:34;96911.06;;;14.85;100.00
5455;BME280;2750;49.050;9.250;2023-03-13T19:08:37;96887.53;;;15.12;100.00
5455;BME280;2750;49.050;9.250;2023-03-13T19:13:38;96997.81;;;15.43;98.72
5455;BME280;2750;49.050;9.250;2023-03-13T19:18:40;97053.59;;;14.78;100.00
5455;BME280;2750;49.050;9.250;2023-03-13T19:23:43;97003.53;;;15.29;99.62
5455;BME280;2750;49.050;9.250;2023-03-13T19:28:45;96983.94;;;14.78;100.00
5455;BME280;2750;49.050;9.250;2023-03-13T19:33:46;96992.94;;;15.58;98.86
5455;BME280;2750;49.050;9.250;2023-03-13T19:38:49;96998.53;;;15.90;97.29
5455;BME280;2750;49.050;9.250;2023-03-13T19:43:51;97026.97;;;15.48;99.09
5455;BME280;2750;49.050;9.250;2023-03-13T19:48:54;97081.94;;;15.66;97.89
5455;BME280;2750;49.050;9.250;2023-03-13T19:53:57;97129.03;;;15.10;99.49
5455;BME280;2750;49.050;9.250;2023-03-13T19:59:01;97128.31;;;14.21;100.00
5455;BME280;2750;49.050;9.250;2023-03-13T20:04:03;97175.28;;;13.81;100.00
5455;BME280;2750;49.050;9.250;2023-03-13T20:09:08;97184.09;;;13.60;100.00
5455;BME280;2750;49.050;9.250;2023-03-13T20:14:10;97248.69;;;13.35;100.00
5455;BME280;2750;49.050;9.250;2023-03-13T20:19:11;97267.81;;;12.28;100.00
5455;BME280;2750;49.050;9.250;2023-03-13T20:24:14;97300.41;;;11.87;100.00
5455;BME280;2750;49.050;9.250;2023-03-13T20:29:17;97304.91;;;11.96;100.00
5455;BME280;2750;49.050;9.250;2023-03-13T20:34:18;97312.38;;;11.66;100.00
5455;BME280;2750;49.050;9.250;2023-03-13T20:39:22;97289.06;;;11.88;100.00
5455;BME280;2750;49.050;9.250;2023-03-13T20:44:24;97269.91;;;12.23;100.00
5455;BME280;2750;49.050;9.250;2023-03-13T20:49:25;97240.75;;;12.73;100.00
5455;BME280;2750;49.050;9.250;2023-03-13T20:54:28;97231.69;;;12.88;100.00
5455;BME280;2750;49.050;9.250;2023-03-13T20:59:30;97203.19;;;13.19;100.00
5455;BME280;2750;49.050;9.250;2023-03-13T21:04:32;97227.25;;;13.73;98.23
5455;BME280;2750;49.050;9.250;2023-03-13T21:09:34;97241.56;;;13.58;99.41
5455;BME280;2750;49.050;9.250;2023-03-13T21:14:36;97227.97;;;13.34;99.20
5455;BME280;2750;49.050;9.250;2023-03-13T21:19:38;97238.00;;;13.18;99.84
5455;BME280;2750;49.050;9.250;2023-03-13T21:24:40;97242.59;;;13.25;99.54
5455;BME280;2750;49.050;9.250;2023-03-13T21:29:42;97244.88;;;13.08;100.00
5455;BME280;2750;49.050;9.250;2023-03-13T21:34:46;97267.16;;;13.01;99.65
5455;BME280;2750;49.050;9.250;2023-03-13T21:39:50;97263.03;;;12.98;100.00
5455;BME280;2750;49.050;9.250;2023-03-13T21:44:52;97193.69;;;12.33;100.00
5455;BME280;2750;49.050;9.250;2023-03-13T21:49:54;97165.97;;;12.01;100.00
5455;BME280;2750;49.050;9.250;2023-03-13T21:54:57;97122.25;;;11.94;100.00
5455;BME280;2750;49.050;9.250;2023-03-13T21:59:59;97119.19;;;11.89;100.00
5455;BME280;2750;49.050;9.250;2023-03-13T22:05:01;97106.56;;;11.85;100.00
5455;BME280;2750;49.050;9.250;2023-03-13T22:10:05;97122.97;;;11.85;100.00
5455;BME280;2750;49.050;9.250;2023-03-13T22:15:07;97112.00;;;11.82;100.00
5455;BME280;2750;49.050;9.250;2023-03-13T22:20:10;97096.75;;;12.00;100.00
5455;BME280;2750;49.050;9.250;2023-03-13T22:25:14;97090.13;;;11.95;100.00
5455;BME280;2750;49.050;9.250;2023-03-13T22:30:16;97062.66;;;12.14;100.00
5455;BME280;2750;49.050;9.250;2023-03-13T22:35:18;97050.44;;;11.93;100.00
5455;BME280;2750;49.050;9.250;2023-03-13T22:40:21;97046.88;;;11.94;100.00
5455;BME280;2750;49.050;9.250;2023-03-13T22:45:22;97037.31;;;11.95;100.00
5455;BME280;2750;49.050;9.250;2023-03-13T22:50:24;97043.59;;;11.81;100.00
5455;BME280;2750;49.050;9.250;2023-03-13T22:55:30;97025.16;;;11.84;100.00
5455;BME280;2750;49.050;9.250;2023-03-13T23:00:32;97034.78;;;11.73;100.00
5455;BME280;2750;49.050;9.250;2023-03-13T23:05:36;97029.91;;;11.68;100.00
5455;BME280;2750;49.050;9.250;2023-03-13T23:10:40;97013.50;;;11.68;100.00
5455;BME280;2750;49.050;9.250;2023-03-13T23:15:42;97044.94;;;11.65;100.00
5455;BME280;2750;49.050;9.250;2023-03-13T23:20:44;97048.94;;;11.80;100.00
5455;BME280;2750;49.050;9.250;2023-03-13T23:25:47;97062.22;;;11.97;100.00
5455;BME280;2750;49.050;9.250;2023-03-13T23:30:48;97107.09;;;12.11;100.00
5455;BME280;2750;49.050;9.250;2023-03-13T23:35:50;97100.31;;;12.19;100.00
5455;BME280;2750;49.050;9.250;2023-03-13T23:40:52;97109.47;;;12.14;100.00
5455;BME280;2750;49.050;9.250;2023-03-13T23:45:54;97096.47;;;12.34;100.00
5455;BME280;2750;49.050;9.250;2023-03-13T23:50:56;97103.91;;;12.39;100.00
5455;BME280;2750;49.050;9.250;2023-03-13T23:55:59;97096.84;;;12.41;100.00
